createdAt,value
2018-03-24T00:00:16.641Z,80.51
2018-03-24T00:02:45.047Z,80.59
2018-03-24T00:05:13.453Z,80.48
2018-03-24T00:07:41.917Z,80.48
2018-03-24T00:10:10.326Z,80.48
2018-03-24T00:12:38.738Z,80.36
2018-03-24T00:15:07.201Z,80.23
2018-03-24T00:17:35.602Z,79.88
2018-03-24T00:20:04.037Z,80.11
2018-03-24T00:22:32.497Z,80.26
2018-03-24T00:25:00.906Z,80.45
2018-03-24T00:27:29.321Z,80.56
2018-03-24T00:29:57.781Z,80.42
2018-03-24T00:32:26.190Z,80.15
2018-03-24T00:34:54.598Z,79.61
2018-03-24T00:37:23.046Z,80.11
2018-03-24T00:39:51.457Z,80.14
2018-03-24T00:42:19.891Z,80.14
2018-03-24T00:44:48.362Z,80.47
2018-03-24T00:47:16.770Z,80.39
2018-03-24T00:49:45.178Z,80.27
2018-03-24T00:52:13.649Z,80.13
2018-03-24T00:54:42.062Z,80.06
2018-03-24T00:57:10.481Z,80.16
2018-03-24T00:59:38.941Z,80.14
2018-03-24T01:02:07.366Z,80.28
2018-03-24T01:04:35.789Z,80.33
2018-03-24T01:07:04.269Z,80.03
2018-03-24T01:09:32.689Z,80.00
2018-03-24T01:12:01.130Z,79.99
2018-03-24T01:14:29.802Z,80.00
2018-03-24T01:16:58.214Z,80.08
2018-03-24T01:19:26.617Z,80.26
2018-03-24T01:21:55.086Z,80.17
2018-03-24T01:24:23.501Z,80.10
2018-03-24T01:26:51.906Z,80.28
2018-03-24T01:29:20.457Z,80.35
2018-03-24T01:31:48.866Z,80.55
2018-03-24T01:34:17.273Z,80.39
2018-03-24T01:36:45.738Z,80.57
2018-03-24T01:39:14.146Z,80.49
2018-03-24T01:41:42.554Z,80.35
2018-03-24T01:44:11.005Z,80.57
2018-03-24T01:46:39.421Z,80.60
2018-03-24T01:49:07.832Z,80.57
2018-03-24T01:51:36.303Z,80.59
2018-03-24T01:54:04.742Z,80.79
2018-03-24T01:56:33.154Z,80.75
2018-03-24T01:59:01.629Z,80.46
2018-03-24T02:01:30.048Z,80.72
2018-03-24T02:03:58.462Z,80.69
2018-03-24T02:06:26.917Z,80.57
2018-03-24T02:08:55.327Z,80.66
2018-03-24T02:11:23.749Z,80.71
2018-03-24T02:13:52.210Z,80.64
2018-03-24T02:16:20.613Z,80.56
2018-03-24T02:18:49.018Z,80.82
2018-03-24T02:21:28.201Z,80.56
2018-03-24T02:23:56.610Z,80.74
2018-03-24T02:26:25.044Z,80.82
2018-03-24T02:28:53.498Z,80.80
2018-03-24T02:31:21.898Z,80.77
2018-03-24T02:33:50.310Z,80.72
2018-03-24T02:36:18.758Z,80.63
2018-03-24T02:38:47.169Z,80.65
2018-03-24T02:41:15.574Z,80.53
2018-03-24T02:43:44.042Z,80.56
2018-03-24T02:46:12.450Z,80.60
2018-03-24T02:48:40.865Z,80.83
2018-03-24T02:51:09.326Z,80.75
2018-03-24T02:53:37.731Z,80.51
2018-03-24T02:56:06.150Z,80.58
2018-03-24T02:58:34.607Z,80.76
2018-03-24T03:01:03.034Z,80.56
2018-03-24T03:03:31.450Z,80.51
2018-03-24T03:05:59.915Z,80.59
2018-03-24T03:08:28.325Z,80.55
2018-03-24T03:10:56.734Z,80.66
2018-03-24T03:13:25.188Z,80.88
2018-03-24T03:15:53.598Z,80.77
2018-03-24T03:18:22.008Z,81.10
2018-03-24T03:20:50.550Z,81.06
2018-03-24T03:23:18.958Z,81.37
2018-03-24T03:25:47.365Z,81.01
2018-03-24T03:28:15.833Z,81.23
2018-03-24T03:33:49.353Z,81.42
2018-03-24T03:36:17.758Z,81.39
2018-03-24T03:38:46.166Z,81.90
2018-03-24T03:41:14.908Z,82.03
2018-03-24T03:43:43.325Z,81.99
2018-03-24T03:46:11.909Z,82.01
2018-03-24T03:48:40.361Z,81.98
2018-03-24T03:51:08.769Z,81.91
2018-03-24T03:53:37.173Z,81.98
2018-03-24T03:56:05.629Z,81.94
2018-03-24T03:58:34.048Z,82.25
2018-03-24T04:01:02.454Z,82.49
2018-03-24T04:03:30.901Z,82.40
2018-03-24T04:05:59.314Z,82.24
2018-03-24T04:08:27.717Z,82.26
2018-03-24T04:10:56.162Z,82.20
2018-03-24T04:13:24.573Z,81.87
2018-03-24T04:15:52.987Z,82.04
2018-03-24T04:18:21.437Z,81.89
2018-03-24T04:20:49.841Z,82.08
2018-03-24T04:23:18.249Z,82.09
2018-03-24T04:25:46.712Z,82.00
2018-03-24T04:28:15.117Z,82.50
2018-03-24T04:30:43.525Z,82.23
2018-03-24T04:33:11.970Z,82.22
2018-03-24T04:35:40.382Z,82.11
2018-03-24T04:38:08.798Z,82.12
2018-03-24T04:40:37.262Z,82.05
2018-03-24T04:43:05.666Z,81.99
2018-03-24T04:45:34.074Z,81.97
2018-03-24T04:48:02.529Z,82.06
2018-03-24T04:50:30.964Z,82.34
2018-03-24T04:52:59.378Z,82.15
2018-03-24T04:55:27.834Z,82.65
2018-03-24T04:57:56.260Z,82.39
2018-03-24T05:00:24.678Z,82.24
2018-03-24T05:02:53.129Z,82.26
2018-03-24T05:05:21.534Z,82.55
2018-03-24T05:07:49.939Z,82.40
2018-03-24T05:10:18.402Z,82.39
2018-03-24T05:12:46.818Z,82.54
2018-03-24T05:15:15.226Z,82.61
2018-03-24T05:17:43.683Z,82.66
2018-03-24T05:20:12.106Z,82.91
2018-03-24T05:22:40.523Z,83.02
2018-03-24T05:25:09.001Z,83.08
2018-03-24T05:27:37.406Z,82.87
2018-03-24T05:30:05.833Z,82.60
2018-03-24T05:32:34.294Z,82.72
2018-03-24T05:35:02.706Z,82.53
2018-03-24T05:37:31.115Z,82.26
2018-03-24T05:39:59.565Z,82.20
2018-03-24T05:42:27.973Z,82.33
2018-03-24T05:44:56.378Z,82.42
2018-03-24T05:47:24.827Z,82.37
2018-03-24T05:49:53.233Z,82.34
2018-03-24T05:52:21.638Z,82.47
2018-03-24T05:54:50.090Z,82.64
2018-03-24T05:57:18.490Z,82.19
2018-03-24T05:59:46.894Z,82.32
2018-03-24T06:02:15.621Z,82.18
2018-03-24T06:04:44.025Z,82.24
2018-03-24T06:07:12.430Z,82.31
2018-03-24T06:09:40.902Z,82.70
2018-03-24T06:12:09.309Z,83.13
2018-03-24T06:14:37.725Z,83.34
2018-03-24T06:17:06.174Z,83.34
2018-03-24T06:19:34.574Z,83.13
2018-03-24T06:22:03.031Z,83.17
2018-03-24T06:24:31.478Z,83.19
2018-03-24T06:26:59.890Z,83.10
2018-03-24T06:29:28.293Z,83.06
2018-03-24T06:31:56.758Z,83.08
2018-03-24T06:34:25.215Z,82.48
2018-03-24T06:36:58.212Z,82.63
2018-03-24T06:39:26.651Z,82.30
2018-03-24T06:41:55.061Z,82.74
2018-03-24T06:44:23.514Z,82.94
2018-03-24T06:46:51.928Z,82.74
2018-03-24T06:49:20.336Z,82.86
2018-03-24T06:51:48.781Z,82.80
2018-03-24T06:54:17.186Z,82.68
2018-03-24T06:56:45.609Z,82.85
2018-03-24T06:59:14.179Z,83.09
2018-03-24T07:01:42.590Z,83.22
2018-03-24T07:04:10.993Z,83.15
2018-03-24T07:06:39.544Z,82.80
2018-03-24T07:09:08.122Z,82.95
2018-03-24T07:11:36.534Z,83.12
2018-03-24T07:14:04.998Z,82.96
2018-03-24T07:16:33.412Z,82.61
2018-03-24T07:19:01.850Z,82.57
2018-03-24T07:21:30.319Z,82.69
2018-03-24T07:23:58.725Z,82.51
2018-03-24T07:26:27.126Z,82.46
2018-03-24T07:28:55.617Z,82.57
2018-03-24T07:31:24.030Z,82.87
2018-03-24T07:33:52.438Z,82.80
2018-03-24T07:36:20.901Z,81.92
2018-03-24T07:38:49.310Z,81.97
2018-03-24T07:41:17.730Z,81.87
2018-03-24T07:43:46.197Z,81.35
2018-03-24T07:46:14.607Z,81.07
2018-03-24T07:48:43.018Z,80.80
2018-03-24T07:51:11.465Z,80.87
2018-03-24T07:53:39.869Z,80.56
2018-03-24T07:56:08.274Z,80.63
2018-03-24T07:58:36.733Z,80.56
2018-03-24T08:01:05.162Z,80.25
2018-03-24T08:03:34.579Z,80.49
2018-03-24T08:06:03.039Z,79.87
2018-03-24T08:08:31.446Z,79.63
2018-03-24T08:10:59.854Z,79.53
2018-03-24T08:13:28.322Z,79.65
2018-03-24T08:15:56.731Z,79.14
2018-03-24T08:18:25.137Z,78.74
2018-03-24T08:20:53.590Z,78.01
2018-03-24T08:23:21.998Z,77.94
2018-03-24T08:25:50.410Z,77.28
2018-03-24T08:28:18.866Z,76.88
2018-03-24T08:30:47.273Z,76.77
2018-03-24T08:33:15.689Z,76.47
2018-03-24T08:35:44.146Z,76.24
2018-03-24T08:38:12.549Z,77.00
2018-03-24T08:40:40.958Z,76.71
2018-03-24T08:43:09.417Z,76.05
2018-03-24T08:45:37.829Z,75.57
2018-03-24T08:48:06.248Z,75.25
2018-03-24T08:50:34.705Z,74.84
2018-03-24T08:53:03.114Z,74.48
2018-03-24T08:55:31.518Z,74.08
2018-03-24T08:57:59.994Z,74.41
2018-03-24T09:00:28.426Z,74.24
2018-03-24T09:02:56.826Z,74.38
2018-03-24T09:05:25.289Z,73.95
2018-03-24T09:07:53.699Z,74.68
2018-03-24T09:10:22.110Z,73.32
2018-03-24T09:12:50.566Z,72.32
2018-03-24T09:15:18.973Z,71.27
2018-03-24T09:17:47.389Z,71.50
2018-03-24T09:20:15.845Z,71.09
2018-03-24T09:22:44.249Z,72.01
2018-03-24T09:25:12.654Z,71.46
2018-03-24T09:27:41.123Z,71.60
2018-03-24T09:30:09.530Z,70.45
2018-03-24T09:32:37.942Z,70.14
2018-03-24T09:35:06.414Z,70.01
2018-03-24T09:37:34.829Z,69.55
2018-03-24T09:40:03.250Z,69.04
2018-03-24T09:42:31.706Z,69.12
2018-03-24T09:45:00.109Z,69.48
2018-03-24T09:47:28.545Z,69.84
2018-03-24T09:49:56.989Z,69.49
2018-03-24T09:52:25.397Z,70.32
2018-03-24T09:54:53.802Z,69.87
2018-03-24T09:57:22.254Z,69.12
2018-03-24T09:59:50.661Z,70.02
2018-03-24T10:02:19.066Z,68.29
2018-03-24T10:04:47.530Z,68.42
2018-03-24T10:07:15.941Z,68.20
2018-03-24T10:09:44.363Z,68.25
2018-03-24T10:12:12.824Z,67.11
2018-03-24T10:14:41.237Z,66.77
2018-03-24T10:17:09.646Z,66.82
2018-03-24T10:19:38.102Z,67.28
2018-03-24T10:22:17.174Z,66.44
2018-03-24T10:24:45.645Z,65.84
2018-03-24T10:27:14.078Z,65.84
2018-03-24T10:29:42.490Z,64.82
2018-03-24T10:32:10.973Z,64.49
2018-03-24T10:34:39.402Z,63.82
2018-03-24T10:37:07.822Z,63.20
2018-03-24T10:39:36.294Z,63.14
2018-03-24T10:42:04.733Z,61.70
2018-03-24T10:44:33.149Z,61.47
2018-03-24T10:47:01.626Z,60.84
2018-03-24T10:49:30.050Z,60.25
2018-03-24T10:51:58.473Z,59.07
2018-03-24T10:54:26.926Z,56.87
2018-03-24T10:56:55.332Z,56.33
2018-03-24T10:59:23.733Z,56.11
2018-03-24T11:01:52.213Z,53.52
2018-03-24T11:04:20.618Z,55.74
2018-03-24T11:06:49.026Z,56.96
2018-03-24T11:09:17.485Z,55.68
2018-03-24T11:11:45.894Z,52.29
2018-03-24T11:14:14.297Z,53.03
2018-03-24T11:16:42.762Z,54.40
2018-03-24T11:19:11.174Z,53.04
2018-03-24T11:21:39.590Z,54.37
2018-03-24T11:24:08.054Z,55.31
2018-03-24T11:26:36.469Z,54.72
2018-03-24T11:29:04.890Z,53.31
2018-03-24T11:31:33.346Z,53.03
2018-03-24T11:34:01.763Z,53.12
2018-03-24T11:36:30.174Z,53.07
2018-03-24T11:38:58.662Z,53.39
2018-03-24T11:41:27.085Z,52.60
2018-03-24T11:43:55.498Z,51.39
2018-03-24T11:46:23.961Z,51.13
2018-03-24T11:48:52.373Z,50.88
2018-03-24T11:51:20.786Z,52.19
2018-03-24T11:53:49.275Z,51.15
2018-03-24T11:56:17.718Z,50.58
2018-03-24T11:58:46.138Z,51.14
2018-03-24T12:01:14.605Z,50.25
2018-03-24T12:03:43.054Z,50.06
2018-03-24T12:06:11.466Z,50.45
2018-03-24T12:08:39.927Z,50.13
2018-03-24T12:11:08.338Z,50.74
2018-03-24T12:13:36.750Z,51.20
2018-03-24T12:16:05.230Z,52.39
2018-03-24T12:18:33.657Z,51.18
2018-03-24T12:21:02.083Z,51.34
2018-03-24T12:23:30.544Z,51.25
2018-03-24T12:25:58.958Z,51.04
2018-03-24T12:28:27.364Z,52.68
2018-03-24T12:30:55.818Z,51.76
2018-03-24T12:33:24.234Z,52.62
2018-03-24T12:35:52.646Z,51.98
2018-03-24T12:38:21.122Z,52.83
2018-03-24T12:40:49.539Z,53.26
2018-03-24T12:43:17.955Z,52.87
2018-03-24T12:45:46.435Z,53.64
2018-03-24T12:48:14.854Z,52.38
2018-03-24T12:50:43.271Z,52.79
2018-03-24T12:53:11.738Z,52.98
2018-03-24T12:55:40.151Z,52.60
2018-03-24T12:58:08.570Z,51.86
2018-03-24T13:00:37.840Z,51.67
2018-03-24T13:03:06.261Z,50.40
2018-03-24T13:05:34.678Z,100.00
2018-03-24T13:08:03.170Z,51.61
2018-03-24T13:10:31.595Z,100.00
2018-03-24T13:13:00.030Z,50.89
2018-03-24T13:15:28.506Z,100.00
2018-03-24T13:17:56.933Z,51.66
2018-03-24T13:20:25.361Z,100.00
2018-03-24T13:22:53.857Z,100.00
2018-03-24T13:25:22.278Z,51.18
2018-03-24T13:27:50.710Z,100.00
2018-03-24T13:30:19.190Z,50.93
2018-03-24T13:32:47.620Z,100.00
2018-03-24T13:35:16.065Z,100.00
2018-03-24T13:37:44.549Z,100.00
2018-03-24T13:40:12.990Z,100.00
2018-03-24T13:42:41.427Z,100.00
2018-03-24T13:45:09.918Z,100.00
2018-03-24T13:47:38.354Z,100.00
2018-03-24T13:50:06.803Z,100.00
2018-03-24T13:52:35.294Z,100.00
2018-03-24T13:55:03.770Z,100.00
2018-03-24T13:57:32.217Z,100.00
2018-03-24T14:00:01.353Z,100.00
2018-03-24T14:02:29.793Z,100.00
2018-03-24T14:04:58.230Z,100.00
2018-03-24T14:07:26.723Z,100.00
2018-03-24T14:09:55.162Z,100.00
2018-03-24T14:12:23.597Z,100.00
2018-03-24T14:14:52.126Z,100.00
2018-03-24T14:17:20.561Z,100.00
2018-03-24T14:19:49.006Z,100.00
2018-03-24T14:22:17.525Z,100.00
2018-03-24T14:24:45.962Z,100.00
2018-03-24T14:27:14.397Z,100.00
2018-03-24T14:29:42.881Z,100.00
2018-03-24T14:32:11.321Z,100.00
2018-03-24T14:34:39.757Z,100.00
2018-03-24T14:37:08.425Z,100.00
2018-03-24T14:39:36.866Z,100.00
2018-03-24T14:42:05.310Z,100.00
2018-03-24T14:44:33.795Z,100.00
2018-03-24T14:47:02.241Z,100.00
2018-03-24T14:49:30.678Z,100.00
2018-03-24T14:51:59.162Z,100.00
2018-03-24T14:54:27.647Z,100.00
2018-03-24T14:56:56.073Z,100.00
2018-03-24T14:59:24.558Z,100.00
2018-03-24T15:01:52.993Z,100.00
2018-03-24T15:04:21.433Z,100.00
2018-03-24T15:06:49.926Z,100.00
2018-03-24T15:09:18.370Z,100.00
2018-03-24T15:11:46.813Z,100.00
2018-03-24T15:14:15.304Z,100.00
2018-03-24T15:16:43.746Z,100.00
2018-03-24T15:19:12.210Z,100.00
2018-03-24T15:21:40.698Z,100.00
2018-03-24T15:24:09.138Z,100.00
2018-03-24T15:26:37.576Z,100.00
2018-03-24T15:29:17.827Z,100.00
2018-03-24T15:31:58.182Z,100.00
2018-03-24T15:34:38.391Z,100.00
2018-03-24T15:37:06.829Z,100.00
2018-03-24T15:39:35.261Z,100.00
2018-03-24T15:42:03.777Z,100.00
2018-03-24T15:44:32.217Z,100.00
2018-03-24T15:47:00.659Z,100.00
2018-03-24T15:49:29.347Z,100.00
2018-03-24T15:51:57.787Z,100.00
2018-03-24T15:54:26.226Z,100.00
2018-03-24T15:56:54.729Z,100.00
2018-03-24T15:59:23.166Z,100.00
2018-03-24T16:01:51.614Z,100.00
2018-03-24T16:04:20.101Z,100.00
2018-03-24T16:06:48.546Z,100.00
2018-03-24T16:09:16.990Z,100.00
2018-03-24T16:11:45.486Z,100.00
2018-03-24T16:14:13.926Z,100.00
2018-03-24T16:16:42.358Z,100.00
2018-03-24T16:19:10.856Z,100.00
2018-03-24T16:21:39.294Z,100.00
2018-03-24T16:24:07.839Z,100.00
2018-03-24T16:26:36.338Z,100.00
2018-03-24T16:29:04.777Z,100.00
2018-03-24T16:31:33.210Z,100.00
2018-03-24T16:34:01.703Z,100.00
2018-03-24T16:36:30.137Z,100.00
2018-03-24T16:38:58.581Z,100.00
2018-03-24T16:41:27.108Z,100.00
2018-03-24T16:43:55.554Z,100.00
2018-03-24T16:46:23.996Z,100.00
2018-03-24T16:48:52.478Z,100.00
2018-03-24T16:51:20.926Z,100.00
2018-03-24T16:53:49.370Z,100.00
2018-03-24T16:56:18.050Z,100.00
2018-03-24T16:58:46.490Z,100.00
2018-03-24T17:01:14.930Z,100.00
2018-03-24T17:03:43.413Z,100.00
2018-03-24T17:06:11.849Z,100.00
2018-03-24T17:08:40.289Z,100.00
2018-03-24T17:11:08.770Z,100.00
2018-03-24T17:13:37.210Z,100.00
2018-03-24T17:16:05.705Z,100.00
2018-03-24T17:18:34.174Z,100.00
2018-03-24T17:21:02.627Z,100.00
2018-03-24T17:23:31.066Z,100.00
2018-03-24T17:25:59.545Z,100.00
2018-03-24T17:28:27.981Z,100.00
2018-03-24T17:30:56.464Z,100.00
2018-03-24T17:33:24.925Z,100.00
2018-03-24T17:35:53.358Z,100.00
2018-03-24T17:38:21.811Z,100.00
2018-03-24T17:40:50.309Z,100.00
2018-03-24T17:43:18.761Z,100.00
2018-03-24T17:45:47.213Z,100.00
2018-03-24T17:48:15.744Z,100.00
2018-03-24T17:50:44.189Z,100.00
2018-03-24T17:53:12.708Z,100.00
2018-03-24T17:55:41.205Z,100.00
2018-03-24T17:58:09.646Z,100.00
2018-03-24T18:00:38.085Z,100.00
2018-03-24T18:03:06.597Z,100.00
2018-03-24T18:05:35.075Z,100.00
2018-03-24T18:08:03.542Z,100.00
2018-03-24T18:10:32.022Z,100.00
2018-03-24T18:13:00.461Z,100.00
2018-03-24T18:15:28.898Z,100.00
2018-03-24T18:17:57.382Z,100.00
2018-03-24T18:20:25.818Z,100.00
2018-03-24T18:22:54.269Z,100.00
2018-03-24T18:25:22.765Z,100.00
2018-03-24T18:27:51.201Z,100.00
2018-03-24T18:30:19.641Z,100.00
2018-03-24T18:32:48.156Z,100.00
2018-03-24T18:35:16.598Z,100.00
2018-03-24T18:37:45.035Z,100.00
2018-03-24T18:40:13.519Z,100.00
2018-03-24T18:42:41.963Z,100.00
2018-03-24T18:45:10.432Z,100.00
2018-03-24T18:47:38.930Z,100.00
2018-03-24T18:50:07.369Z,100.00
2018-03-24T18:52:35.806Z,100.00
2018-03-24T18:55:04.322Z,100.00
2018-03-24T18:57:32.762Z,100.00
2018-03-24T19:00:42.430Z,63.27
2018-03-24T19:03:10.834Z,63.40
2018-03-24T19:05:39.261Z,63.63
2018-03-24T19:08:07.756Z,63.82
2018-03-24T19:10:36.176Z,64.23
2018-03-24T19:13:04.589Z,63.99
2018-03-24T19:15:33.061Z,64.26
2018-03-24T19:18:01.477Z,64.39
2018-03-24T19:20:29.900Z,64.50
2018-03-24T19:22:58.369Z,64.54
2018-03-24T19:25:26.774Z,64.69
2018-03-24T19:27:55.179Z,65.00
2018-03-24T19:30:23.645Z,65.17
2018-03-24T19:32:52.068Z,65.25
2018-03-24T19:35:20.474Z,65.14
2018-03-24T19:37:48.921Z,65.54
2018-03-24T19:40:17.326Z,65.98
2018-03-24T19:42:45.738Z,66.29
2018-03-24T19:45:14.234Z,66.74
2018-03-24T19:47:42.646Z,66.99
2018-03-24T19:50:11.073Z,67.22
2018-03-24T19:52:39.544Z,67.56
2018-03-24T19:55:07.958Z,67.99
2018-03-24T19:57:36.377Z,68.37
2018-03-24T20:00:04.891Z,68.62
2018-03-24T20:02:33.306Z,68.60
2018-03-24T20:05:01.718Z,68.60
2018-03-24T20:07:30.170Z,68.31
2018-03-24T20:09:58.579Z,68.00
2018-03-24T20:12:26.986Z,68.01
2018-03-24T20:14:55.462Z,68.11
2018-03-24T20:17:23.868Z,68.01
2018-03-24T20:19:53.045Z,67.88
2018-03-24T20:22:21.489Z,67.98
2018-03-24T20:24:49.921Z,67.89
2018-03-24T20:27:18.329Z,67.80
2018-03-24T20:29:46.794Z,67.87
2018-03-24T20:32:15.207Z,67.55
2018-03-24T20:34:43.621Z,67.71
2018-03-24T20:37:12.076Z,67.63
2018-03-24T20:39:40.485Z,67.42
2018-03-24T20:42:08.898Z,67.13
2018-03-24T20:44:37.393Z,67.24
2018-03-24T20:47:05.817Z,67.03
2018-03-24T20:49:34.229Z,67.28
2018-03-24T20:52:02.690Z,67.40
2018-03-24T20:54:31.098Z,67.33
2018-03-24T20:56:59.521Z,67.40
2018-03-24T20:59:27.986Z,67.39
2018-03-24T21:01:56.389Z,67.23
2018-03-24T21:04:24.795Z,67.23
2018-03-24T21:06:53.266Z,67.37
2018-03-24T21:09:21.674Z,67.54
2018-03-24T21:11:50.080Z,67.77
2018-03-24T21:14:18.554Z,67.81
2018-03-24T21:16:46.966Z,67.85
2018-03-24T21:19:15.374Z,68.09
2018-03-24T21:21:43.857Z,68.03
2018-03-24T21:24:12.267Z,67.99
2018-03-24T21:26:40.673Z,67.86
2018-03-24T21:29:09.129Z,68.00
2018-03-24T21:31:37.549Z,67.98
2018-03-24T21:34:05.962Z,68.02
2018-03-24T21:36:34.426Z,67.86
2018-03-24T21:39:02.868Z,67.96
2018-03-24T21:41:31.274Z,68.24
2018-03-24T21:43:59.726Z,68.31
2018-03-24T21:46:28.139Z,68.31
2018-03-24T21:48:56.550Z,68.39
2018-03-24T21:51:25.093Z,68.51
2018-03-24T21:53:53.526Z,68.55
2018-03-24T21:56:21.933Z,68.56
2018-03-24T21:58:50.412Z,68.87
2018-03-24T22:01:18.845Z,68.86
2018-03-24T22:03:47.270Z,69.04
2018-03-24T22:06:15.716Z,69.19
2018-03-24T22:08:44.135Z,69.73
2018-03-24T22:11:12.559Z,70.01
2018-03-24T22:13:41.026Z,70.35
2018-03-24T22:16:09.434Z,70.46
2018-03-24T22:18:37.857Z,70.77
2018-03-24T22:21:06.559Z,70.94
2018-03-24T22:23:34.970Z,71.31
2018-03-24T22:26:03.378Z,71.39
2018-03-24T22:28:31.829Z,71.74
2018-03-24T22:31:00.233Z,71.92
2018-03-24T22:33:28.638Z,72.00
2018-03-24T22:35:57.088Z,72.09
2018-03-24T22:38:25.494Z,72.32
2018-03-24T22:40:53.901Z,72.65
2018-03-24T22:43:22.367Z,72.63
2018-03-24T22:45:50.787Z,72.82
2018-03-24T22:48:19.194Z,73.03
2018-03-24T22:50:47.871Z,73.32
2018-03-24T22:53:16.282Z,73.34
2018-03-24T22:55:44.696Z,73.29
2018-03-24T22:58:13.145Z,73.16
2018-03-24T23:00:41.564Z,73.22
2018-03-24T23:03:09.967Z,73.18
2018-03-24T23:05:38.447Z,72.88
2018-03-24T23:08:06.850Z,73.11
2018-03-24T23:10:35.253Z,73.19
2018-03-24T23:13:03.702Z,73.34
2018-03-24T23:15:32.110Z,73.26
2018-03-24T23:18:00.526Z,73.44
2018-03-24T23:20:29.008Z,73.32
2018-03-24T23:22:57.415Z,73.09
2018-03-24T23:25:25.822Z,73.59
2018-03-24T23:27:54.294Z,73.70
2018-03-24T23:30:22.690Z,73.97
2018-03-24T23:32:51.093Z,73.95
2018-03-24T23:35:19.549Z,73.72
2018-03-24T23:37:47.969Z,73.90
2018-03-24T23:40:16.373Z,73.85
2018-03-24T23:42:45.038Z,73.73
2018-03-24T23:45:13.445Z,73.73
2018-03-24T23:47:41.845Z,73.33
2018-03-24T23:50:10.300Z,73.18
2018-03-24T23:52:38.709Z,73.15
2018-03-24T23:55:07.115Z,73.21
2018-03-24T23:57:35.581Z,73.30
